Time;durP1;ratioP1;P1;durP2;ratioP2;P2;SDS_P1;SDS_P2;PMS_P1;PMS_P2;Temp;Humidity;BMP_temperature;BMP_pressure;BME280_temperature;BME280_humidity;BME280_pressure;Samples;Min_cycle;Max_cycle;Signal;HPM_P1;HPM_P2
2023/04/21 00:01:28;;;;;;;47.03;37.85;;;30.40;68.00;;;;;;1826806;77;21695;-74
2023/04/21 00:03:59;;;;;;;50.80;37.70;;;30.40;68.00;;;;;;1856000;75;21095;-75
2023/04/21 00:06:31;;;;;;;47.70;35.75;;;30.40;67.20;;;;;;1859111;75;21150;-75
2023/04/21 00:09:04;;;;;;;46.40;37.10;;;30.50;67.30;;;;;;1860393;75;21094;-75
2023/04/21 00:11:35;;;;;;;49.95;39.48;;;30.50;67.40;;;;;;1861168;76;21181;-74
2023/04/21 00:14:06;;;;;;;50.30;39.78;;;30.50;67.40;;;;;;1873188;75;21164;-75
2023/04/21 00:16:38;;;;;;;52.90;39.85;;;30.60;67.60;;;;;;1860846;76;21129;-75
2023/04/21 00:19:12;;;;;;;44.42;35.58;;;30.60;67.40;;;;;;1855654;76;21093;-75
2023/04/21 00:21:42;;;;;;;43.20;35.55;;;30.50;67.30;;;;;;1854803;77;21132;-75
2023/04/21 00:24:13;;;;;;;48.85;36.93;;;30.50;67.00;;;;;;1852258;77;21574;-76
2023/04/21 00:26:44;;;;;;;48.83;36.85;;;30.50;67.20;;;;;;1855177;76;21455;-76
2023/04/21 00:29:15;;;;;;;48.45;35.90;;;30.60;66.90;;;;;;1855256;76;21771;-75
2023/04/21 00:31:47;;;;;;;47.30;36.10;;;30.70;66.70;;;;;;1855809;77;21203;-75
2023/04/21 00:34:18;;;;;;;46.00;36.33;;;30.70;66.40;;;;;;1853698;76;21162;-76
2023/04/21 00:36:50;;;;;;;44.18;36.70;;;30.80;66.70;;;;;;1856735;76;21109;-77
2023/04/21 00:39:21;;;;;;;47.75;35.95;;;30.90;66.50;;;;;;1855051;76;21173;-77
2023/04/21 00:41:52;;;;;;;50.73;36.17;;;30.90;66.30;;;;;;1854135;76;21246;-76
2023/04/21 00:44:24;;;;;;;49.45;37.30;;;30.90;66.70;;;;;;1852359;76;21220;-76
2023/04/21 00:46:55;;;;;;;50.52;40.52;;;31.00;66.30;;;;;;1842171;76;21184;-76
2023/04/21 00:49:26;;;;;;;47.98;37.63;;;31.00;66.20;;;;;;1852202;76;21204;-75
2023/04/21 00:51:58;;;;;;;48.78;38.23;;;31.10;66.30;;;;;;1857400;76;21417;-76
2023/04/21 00:54:29;;;;;;;43.87;37.48;;;31.10;66.60;;;;;;1852920;76;21149;-75
2023/04/21 00:57:00;;;;;;;47.15;37.73;;;31.10;66.50;;;;;;1853483;76;21181;-75
2023/04/21 00:59:32;;;;;;;52.10;40.15;;;31.10;66.70;;;;;;1851065;76;21151;-75
2023/04/21 01:02:05;;;;;;;62.00;36.83;;;31.20;66.60;;;;;;1849202;76;21138;-76
2023/04/21 01:04:38;;;;;;;63.92;38.28;;;31.20;65.80;;;;;;1849398;76;21091;-76
2023/04/21 01:07:09;;;;;;;47.33;35.75;;;31.20;65.30;;;;;;1852426;76;21644;-75
2023/04/21 01:09:40;;;;;;;46.50;35.85;;;31.20;64.30;;;;;;1853724;76;21565;-75
2023/04/21 01:12:12;;;;;;;43.05;36.03;;;31.20;64.40;;;;;;1857306;76;21191;-75
2023/04/21 01:14:44;;;;;;;46.53;36.15;;;31.20;64.80;;;;;;1855950;76;22069;-75
2023/04/21 01:17:17;;;;;;;49.95;36.17;;;31.20;64.20;;;;;;1859753;76;21604;-74
2023/04/21 01:19:48;;;;;;;45.90;34.67;;;31.20;64.10;;;;;;1865974;76;21758;-74
2023/04/21 01:22:20;;;;;;;39.95;33.83;;;31.20;63.70;;;;;;1854715;76;21121;-73
2023/04/21 01:24:51;;;;;;;45.03;35.28;;;31.30;64.10;;;;;;1855341;76;21131;-76
2023/04/21 01:27:22;;;;;;;47.30;35.98;;;31.30;64.00;;;;;;1845139;76;21183;-73
2023/04/21 01:29:53;;;;;;;50.03;38.05;;;31.40;63.80;;;;;;1857240;76;21211;-75
2023/04/21 01:32:27;;;;;;;45.50;37.42;;;31.40;63.30;;;;;;1871913;76;21138;-75
2023/04/21 01:34:59;;;;;;;42.62;36.50;;;31.50;62.70;;;;;;1856983;76;21593;-74
2023/04/21 01:37:32;;;;;;;41.23;34.38;;;31.60;62.20;;;;;;1859966;76;21153;-75
2023/04/21 01:40:06;;;;;;;43.02;33.70;;;31.60;61.50;;;;;;1858145;76;21083;-75
2023/04/21 01:42:39;;;;;;;50.05;35.28;;;31.70;61.60;;;;;;1787751;79;21128;-73
2023/04/21 01:45:11;;;;;;;40.03;33.48;;;31.70;61.50;;;;;;1859399;76;21189;-74
2023/04/21 01:47:42;;;;;;;43.58;33.38;;;31.80;60.80;;;;;;1851696;76;21233;-75
2023/04/21 01:50:15;;;;;;;47.33;32.08;;;31.90;60.70;;;;;;1855551;76;21262;-74
2023/04/21 01:52:46;;;;;;;59.83;32.98;;;32.00;61.00;;;;;;1844047;76;21207;-74
2023/04/21 01:55:17;;;;;;;41.30;30.80;;;32.20;61.40;;;;;;1818906;78;21148;-74
2023/04/21 01:57:48;;;;;;;36.25;30.80;;;32.30;60.10;;;;;;1838294;76;21565;-73
2023/04/21 02:00:20;;;;;;;40.88;31.75;;;32.40;59.70;;;;;;1893063;74;21665;-75
2023/04/21 02:02:51;;;;;;;58.05;34.98;;;32.50;59.50;;;;;;1884597;74;21078;-73
2023/04/21 02:05:22;;;;;;;44.20;32.70;;;32.60;59.00;;;;;;1888870;74;21174;-75
2023/04/21 02:07:53;;;;;;;43.87;31.17;;;32.80;58.90;;;;;;1882023;75;21106;-75
2023/04/21 02:10:24;;;;;;;41.45;32.35;;;32.80;58.50;;;;;;1882636;75;21267;-76
2023/04/21 02:12:55;;;;;;;39.42;31.15;;;32.80;58.30;;;;;;1886409;74;21189;-75
2023/04/21 02:15:27;;;;;;;37.73;32.08;;;32.90;58.20;;;;;;1882295;74;21156;-76
2023/04/21 02:17:58;;;;;;;40.52;33.45;;;33.00;57.80;;;;;;1856513;76;21530;-75
2023/04/21 02:20:29;;;;;;;42.88;33.02;;;33.10;57.80;;;;;;1855675;76;21137;-76
2023/04/21 02:23:00;;;;;;;37.70;30.72;;;33.20;58.10;;;;;;1819438;77;21092;-76
2023/04/21 02:25:31;;;;;;;91.08;39.83;;;33.30;57.90;;;;;;1783148;79;21184;-77
2023/04/21 02:28:03;;;;;;;42.10;32.78;;;33.40;57.20;;;;;;1785112;79;21211;-75
2023/04/21 02:30:34;;;;;;;59.93;33.98;;;33.50;57.10;;;;;;1826464;77;21168;-76
2023/04/21 02:33:06;;;;;;;49.38;33.33;;;33.60;56.30;;;;;;1772541;79;21201;-76
2023/04/21 02:35:37;;;;;;;43.50;31.90;;;33.60;56.40;;;;;;1781598;79;21093;-75
2023/04/21 02:38:09;;;;;;;39.65;31.62;;;33.70;56.70;;;;;;1821541;77;21231;-74
2023/04/21 02:40:41;;;;;;;44.48;33.23;;;33.80;56.70;;;;;;1832089;77;21606;-75
2023/04/21 02:43:13;;;;;;;40.90;31.00;;;33.90;55.20;;;;;;1821172;77;21691;-73
2023/04/21 02:45:45;;;;;;;41.90;29.95;;;33.90;55.20;;;;;;1818364;77;21177;-75
2023/04/21 02:48:21;;;;;;;42.08;31.45;;;34.00;54.20;;;;;;1814008;78;21201;-75
2023/04/21 02:50:49;;;;;;;45.50;32.03;;;34.00;54.60;;;;;;1819543;77;21132;-74
2023/04/21 02:53:23;;;;;;;35.78;32.08;;;34.20;54.20;;;;;;1816276;77;21654;-74
2023/04/21 02:55:54;;;;;;;38.10;30.52;;;34.20;53.90;;;;;;1817010;77;21088;-73
2023/04/21 02:58:25;;;;;;;39.05;30.82;;;34.30;54.20;;;;;;1819670;77;21781;-72
2023/04/21 03:00:57;;;;;;;34.78;29.45;;;34.40;54.20;;;;;;1823646;77;21076;-75
2023/04/21 03:03:29;;;;;;;37.25;29.55;;;34.60;53.30;;;;;;1791560;79;21695;-74
2023/04/21 03:06:02;;;;;;;35.13;29.25;;;34.70;52.60;;;;;;1826189;77;21141;-75
2023/04/21 03:08:33;;;;;;;36.15;29.55;;;34.80;51.70;;;;;;1815071;77;21167;-75
2023/04/21 03:11:24;;;;;;;36.73;30.45;;;34.80;52.30;;;;;;1815389;77;21168;-74
2023/04/21 03:13:55;;;;;;;38.60;30.68;;;34.90;52.10;;;;;;1852499;76;21402;-72
2023/04/21 03:16:27;;;;;;;36.08;29.12;;;35.00;52.20;;;;;;1891845;74;21579;-78
2023/04/21 03:18:58;;;;;;;37.23;30.15;;;35.10;52.30;;;;;;1898476;74;21635;-74
2023/04/21 03:21:30;;;;;;;36.15;31.60;;;35.20;51.30;;;;;;1867482;76;21131;-75
2023/04/21 03:24:01;;;;;;;54.35;33.63;;;35.30;50.80;;;;;;1879619;76;21114;-75
2023/04/21 03:26:32;;;;;;;44.70;33.33;;;35.30;51.60;;;;;;1906029;74;21108;-76
2023/04/21 03:29:03;;;;;;;42.17;33.58;;;35.30;51.00;;;;;;1854952;76;21123;-74
2023/04/21 03:31:34;;;;;;;37.45;32.05;;;35.20;51.50;;;;;;1864705;76;21136;-75
2023/04/21 03:34:05;;;;;;;47.85;34.73;;;35.20;51.30;;;;;;1924308;74;21114;-76
2023/04/21 03:36:36;;;;;;;46.63;33.28;;;35.20;51.00;;;;;;1859015;76;21268;-76
2023/04/21 03:39:07;;;;;;;42.23;34.38;;;35.30;51.30;;;;;;1866732;76;21195;-75
2023/04/21 03:41:40;;;;;;;52.30;35.48;;;35.50;50.80;;;;;;1846896;77;21143;-74
2023/04/21 03:44:11;;;;;;;48.55;34.20;;;35.60;50.80;;;;;;1895298;74;21741;-75
2023/04/21 03:46:42;;;;;;;45.38;34.13;;;35.70;50.80;;;;;;1848325;76;21425;-74
2023/04/21 03:49:13;;;;;;;43.78;34.70;;;35.90;50.40;;;;;;1855792;76;21186;-75
2023/04/21 03:51:44;;;;;;;48.48;34.53;;;33.30;48.30;;;;;;1865823;76;21546;-76
2023/04/21 03:54:15;;;;;;;37.58;33.50;;;36.00;50.60;;;;;;1891044;74;21142;-76
2023/04/21 03:56:46;;;;;;;41.05;34.48;;;36.10;49.80;;;;;;1853158;76;21640;-75
2023/04/21 03:59:17;;;;;;;40.78;34.53;;;36.20;49.70;;;;;;1890801;74;21129;-74
2023/04/21 04:01:49;;;;;;;86.00;39.15;;;36.30;48.90;;;;;;1855998;76;21103;-75
2023/04/21 04:04:20;;;;;;;46.10;35.20;;;36.30;49.70;;;;;;1857512;76;21576;-75
2023/04/21 04:06:51;;;;;;;40.30;33.65;;;36.40;49.00;;;;;;1890363;74;21621;-74
2023/04/21 04:09:23;;;;;;;39.53;33.45;;;36.50;48.50;;;;;;1853937;76;21115;-75
2023/04/21 04:11:54;;;;;;;39.83;33.78;;;36.60;48.30;;;;;;1902735;74;21203;-75
2023/04/21 04:14:25;;;;;;;41.00;34.10;;;36.60;48.60;;;;;;1895562;74;21733;-74
2023/04/21 04:16:56;;;;;;;49.80;34.05;;;36.60;48.30;;;;;;1858656;76;21214;-74
2023/04/21 04:19:31;;;;;;;45.23;35.88;;;36.70;48.30;;;;;;1863722;76;21838;-74
2023/04/21 04:22:03;;;;;;;42.57;34.27;;;36.70;48.60;;;;;;1851926;75;21062;-75
2023/04/21 04:24:34;;;;;;;36.53;32.58;;;36.80;48.20;;;;;;1906235;74;21075;-75
2023/04/21 04:27:06;;;;;;;43.02;34.45;;;36.80;48.20;;;;;;1892308;74;21082;-75
2023/04/21 04:29:37;;;;;;;39.25;33.05;;;36.80;47.80;;;;;;1854536;76;21669;-75
2023/04/21 04:32:09;;;;;;;39.75;33.20;;;36.90;47.80;;;;;;1918350;74;21175;-75
2023/04/21 04:34:41;;;;;;;40.88;33.88;;;36.90;47.80;;;;;;1905971;74;21841;-75
2023/04/21 04:37:12;;;;;;;40.00;34.27;;;37.10;48.00;;;;;;1864961;76;21121;-74
2023/04/21 04:39:43;;;;;;;38.42;34.18;;;37.10;47.60;;;;;;1849671;76;21114;-77
2023/04/21 04:42:14;;;;;;;39.85;33.35;;;37.10;48.10;;;;;;1899020;74;21245;-76
2023/04/21 04:44:45;;;;;;;37.73;32.58;;;37.10;47.60;;;;;;1857163;76;21632;-75
2023/04/21 04:47:16;;;;;;;37.17;33.28;;;37.10;47.60;;;;;;1897974;74;21137;-76
2023/04/21 04:49:48;;;;;;;37.50;33.60;;;37.20;47.60;;;;;;1855840;76;21163;-76
2023/04/21 04:52:19;;;;;;;42.38;33.75;;;37.20;47.40;;;;;;1854337;76;21677;-75
2023/04/21 04:54:50;;;;;;;37.90;33.78;;;37.30;47.20;;;;;;1897688;74;21077;-75
2023/04/21 04:57:21;;;;;;;37.53;33.42;;;37.30;46.70;;;;;;1860665;76;21734;-75
2023/04/21 04:59:56;;;;;;;40.48;34.88;;;37.40;47.50;;;;;;1857912;76;21092;-74
2023/04/21 05:02:27;;;;;;;38.38;33.15;;;37.50;46.60;;;;;;1888014;74;22022;-75
2023/04/21 05:04:58;;;;;;;37.17;33.28;;;37.50;46.50;;;;;;1836189;77;21165;-75
2023/04/21 05:07:30;;;;;;;49.20;34.78;;;37.50;46.60;;;;;;1907258;74;21140;-74
2023/04/21 05:10:03;;;;;;;38.73;33.38;;;37.50;47.10;;;;;;1852826;76;21197;-75
2023/04/21 05:12:35;;;;;;;38.42;34.05;;;37.60;47.00;;;;;;1852891;76;21080;-75
2023/04/21 05:15:08;;;;;;;42.03;34.88;;;37.70;46.50;;;;;;1853779;76;21182;-74
2023/04/21 05:17:57;;;;;;;40.25;34.30;;;;;;;;;;1896276;74;21229;-75
2023/04/21 05:20:28;;;;;;;39.23;34.65;;;37.70;46.00;;;;;;1880462;75;21156;-73
2023/04/21 05:23:00;;;;;;;40.17;35.30;;;37.70;46.10;;;;;;1824995;78;21212;-74
2023/04/21 05:25:31;;;;;;;44.55;34.85;;;37.70;46.20;;;;;;1861478;76;21185;-74
2023/04/21 05:28:02;;;;;;;36.38;32.30;;;37.80;46.50;;;;;;1865548;76;21072;-74
2023/04/21 05:30:34;;;;;;;40.98;34.40;;;37.90;46.40;;;;;;1858100;76;21523;-75
2023/04/21 05:33:05;;;;;;;41.08;36.88;;;38.00;46.00;;;;;;1870567;76;21169;-74
2023/04/21 05:35:36;;;;;;;47.05;37.45;;;38.00;45.90;;;;;;1877827;76;21128;-74
2023/04/21 05:38:07;;;;;;;40.80;34.90;;;38.00;46.00;;;;;;1859372;76;21691;-76
2023/04/21 05:40:38;;;;;;;40.00;35.78;;;38.10;45.50;;;;;;1865639;76;21077;-76
2023/04/21 05:43:10;;;;;;;39.45;34.38;;;38.20;47.00;;;;;;1871145;76;21241;-75
2023/04/21 05:45:41;;;;;;;38.78;34.92;;;38.20;46.00;;;;;;1857053;76;21642;-75
2023/04/21 05:48:12;;;;;;;38.33;34.33;;;38.30;45.40;;;;;;1863187;76;21098;-74
2023/04/21 05:50:43;;;;;;;38.78;34.60;;;38.30;45.20;;;;;;1859060;76;21543;-73
2023/04/21 05:53:15;;;;;;;40.45;35.25;;;38.30;45.40;;;;;;1863562;76;21236;-75
2023/04/21 05:55:46;;;;;;;38.50;34.48;;;38.40;44.70;;;;;;1858653;76;21213;-76
2023/04/21 05:58:17;;;;;;;40.70;34.88;;;38.40;45.20;;;;;;1861680;76;21091;-74
2023/04/21 06:00:50;;;;;;;42.67;34.92;;;38.40;45.20;;;;;;1865045;76;21181;-74
2023/04/21 06:03:21;;;;;;;40.50;34.95;;;38.40;45.20;;;;;;1849676;76;21566;-75
2023/04/21 06:05:59;;;;;;;39.27;35.13;;;38.40;45.60;;;;;;1855567;76;21126;-74
2023/04/21 06:08:31;;;;;;;41.98;34.83;;;38.40;45.20;;;;;;1850581;76;21119;-73
2023/04/21 06:11:02;;;;;;;39.35;34.98;;;38.50;45.60;;;;;;1826617;77;21122;-76
2023/04/21 06:13:33;;;;;;;38.45;34.10;;;38.60;45.60;;;;;;1855212;77;21099;-74
2023/04/21 06:16:06;;;;;;;43.28;34.43;;;38.60;45.10;;;;;;1861016;75;21173;-77
2023/04/21 06:18:38;;;;;;;44.10;33.98;;;38.60;45.20;;;;;;1857629;76;21114;-76
2023/04/21 06:21:09;;;;;;;40.20;35.25;;;38.60;44.90;;;;;;1843594;77;21700;-76
2023/04/21 06:23:41;;;;;;;47.05;36.13;;;38.60;45.50;;;;;;1858410;76;21627;-75
2023/04/21 06:26:12;;;;;;;42.93;35.68;;;38.70;44.70;;;;;;1801206;79;21166;-75
2023/04/21 06:28:44;;;;;;;40.25;36.15;;;38.70;45.30;;;;;;1812396;78;21260;-76
2023/04/21 06:31:15;;;;;;;41.83;35.63;;;38.70;44.50;;;;;;1815264;79;21167;-76
2023/04/21 06:33:46;;;;;;;40.25;33.70;;;38.70;45.60;;;;;;1809688;79;21162;-77
2023/04/21 06:36:18;;;;;;;39.27;35.05;;;38.60;46.70;;;;;;1813002;78;21123;-80
2023/04/21 06:38:49;;;;;;;41.00;34.20;;;38.50;47.20;;;;;;1804302;79;21718;-77
2023/04/21 06:41:20;;;;;;;40.78;34.45;;;38.40;47.30;;;;;;1845789;77;21220;-76
2023/04/21 06:43:52;;;;;;;59.60;35.60;;;38.30;47.80;;;;;;1844300;77;21142;-78
2023/04/21 06:46:23;;;;;;;38.88;33.25;;;38.30;47.50;;;;;;1838050;76;21163;-77
2023/04/21 06:48:54;;;;;;;37.03;33.05;;;38.20;47.50;;;;;;1839571;76;21198;-78
2023/04/21 06:51:26;;;;;;;41.53;33.70;;;38.20;47.70;;;;;;1842764;76;21174;-78
2023/04/21 06:53:58;;;;;;;40.00;34.30;;;38.20;47.80;;;;;;1813137;77;21076;-74
2023/04/21 06:56:29;;;;;;;39.45;34.18;;;38.20;48.00;;;;;;1812409;78;21184;-74
2023/04/21 06:59:00;;;;;;;38.67;34.48;;;38.20;47.80;;;;;;1837753;76;21260;-75
2023/04/21 07:01:31;;;;;;;39.78;34.50;;;38.20;47.70;;;;;;1845300;76;21205;-76
2023/04/21 07:04:04;;;;;;;37.38;33.05;;;38.20;47.70;;;;;;1808242;78;21178;-78
2023/04/21 07:06:36;;;;;;;39.05;34.90;;;38.20;47.60;;;;;;1843370;76;21607;-75
2023/04/21 07:09:08;;;;;;;39.33;35.15;;;38.10;47.50;;;;;;1813820;79;21152;-77
2023/04/21 07:11:39;;;;;;;39.05;33.48;;;38.10;47.60;;;;;;1801368;78;21251;-75
2023/04/21 07:14:10;;;;;;;40.25;34.23;;;38.10;48.10;;;;;;1847618;76;21262;-76
2023/04/21 07:16:43;;;;;;;40.38;34.80;;;38.10;47.90;;;;;;1839014;76;21144;-75
2023/04/21 07:19:14;;;;;;;38.63;34.63;;;38.10;47.90;;;;;;1851302;76;21150;-76
2023/04/21 07:21:45;;;;;;;39.67;35.48;;;38.10;47.90;;;;;;1846049;76;21121;-75
2023/04/21 07:24:36;;;;;;;43.33;35.73;;;38.10;47.50;;;;;;1846257;76;21220;-74
2023/04/21 07:27:27;;;;;;;41.90;34.35;;;38.10;47.20;;;;;;1846512;77;21232;-75
2023/04/21 07:29:59;;;;;;;42.00;36.80;;;38.10;47.90;;;;;;1844256;77;21098;-76
2023/04/21 07:32:31;;;;;;;39.70;35.65;;;38.00;47.30;;;;;;1857873;76;21695;-72
2023/04/21 07:35:02;;;;;;;38.13;34.13;;;38.10;45.30;;;;;;1860841;76;21085;-75
2023/04/21 07:37:36;;;;;;;40.70;35.23;;;38.10;46.10;;;;;;1843539;76;21260;-73
2023/04/21 07:40:07;;;;;;;47.05;34.83;;;38.20;47.30;;;;;;1849694;76;21082;-75
2023/04/21 07:42:38;;;;;;;39.65;35.65;;;38.20;47.50;;;;;;1851479;76;21187;-76
2023/04/21 07:45:10;;;;;;;39.03;34.75;;;38.20;47.40;;;;;;1814216;78;21190;-74
2023/04/21 07:47:41;;;;;;;39.55;34.78;;;38.10;47.50;;;;;;1844096;76;21111;-76
2023/04/21 07:50:12;;;;;;;40.65;34.48;;;38.00;47.70;;;;;;1846490;77;21685;-76
2023/04/21 07:52:43;;;;;;;39.85;35.73;;;38.00;47.30;;;;;;1841397;76;21548;-75
2023/04/21 07:55:15;;;;;;;39.75;35.58;;;38.00;47.10;;;;;;1808954;79;21139;-77
2023/04/21 07:57:46;;;;;;;40.05;35.98;;;38.00;47.20;;;;;;1836634;77;21932;-76
2023/04/21 08:00:18;;;;;;;38.70;34.55;;;38.10;46.90;;;;;;1814540;79;21099;-74
2023/04/21 08:02:49;;;;;;;43.52;35.80;;;38.00;46.50;;;;;;1848341;76;21187;-73
2023/04/21 08:05:21;;;;;;;40.73;36.40;;;38.10;46.20;;;;;;1856995;76;21496;-74
2023/04/21 08:07:53;;;;;;;55.45;38.38;;;38.20;46.00;;;;;;1842395;76;21234;-76
2023/04/21 08:10:25;;;;;;;39.15;35.13;;;38.30;46.30;;;;;;1838986;77;21253;-75
2023/04/21 08:12:56;;;;;;;49.05;37.17;;;38.30;45.70;;;;;;1845666;77;21256;-74
2023/04/21 08:15:27;;;;;;;40.52;36.08;;;38.40;46.20;;;;;;1852894;76;21191;-74
2023/04/21 08:17:59;;;;;;;39.40;35.23;;;38.40;45.70;;;;;;1846350;76;21270;-74
2023/04/21 08:20:30;;;;;;;43.35;35.23;;;38.50;46.10;;;;;;1848967;76;21228;-73
2023/04/21 08:23:02;;;;;;;41.45;36.98;;;38.50;46.20;;;;;;1828088;77;21121;-74
2023/04/21 08:25:33;;;;;;;43.48;38.17;;;38.40;46.60;;;;;;1840178;77;21983;-74
2023/04/21 08:28:04;;;;;;;40.17;35.88;;;38.40;45.60;;;;;;1815752;79;21195;-74
2023/04/21 08:30:35;;;;;;;47.58;37.83;;;38.40;45.30;;;;;;1844078;77;21637;-77
2023/04/21 08:33:12;;;;;;;39.83;35.50;;;38.40;45.10;;;;;;1849712;76;21225;-74
2023/04/21 08:35:42;;;;;;;40.12;35.78;;;38.40;46.20;;;;;;1841822;76;21140;-75
2023/04/21 08:38:15;;;;;;;40.92;35.98;;;38.50;46.50;;;;;;1833368;77;21223;-77
2023/04/21 08:40:46;;;;;;;41.33;35.83;;;38.40;46.70;;;;;;1842765;76;21121;-75
2023/04/21 08:43:17;;;;;;;41.80;35.88;;;38.40;47.20;;;;;;1836204;77;21174;-75
2023/04/21 08:45:49;;;;;;;39.27;34.90;;;38.30;47.50;;;;;;1849182;76;21111;-75
2023/04/21 08:48:22;;;;;;;40.20;35.88;;;38.30;47.50;;;;;;1843528;77;21223;-77
2023/04/21 08:50:53;;;;;;;40.52;36.35;;;38.20;47.60;;;;;;1846700;76;21132;-75
2023/04/21 08:53:24;;;;;;;38.73;34.73;;;38.10;47.60;;;;;;1824523;77;21158;-75
2023/04/21 08:55:56;;;;;;;41.15;35.63;;;38.00;47.90;;;;;;1811746;79;21588;-74
2023/04/21 08:58:30;;;;;;;;;;;37.90;48.20;;;;;;1848829;76;21177;-74
2023/04/21 09:01:01;;;;;;;39.67;35.30;;;37.80;48.60;;;;;;1842186;77;20239;-74
2023/04/21 09:03:32;;;;;;;39.92;35.68;;;37.70;48.70;;;;;;1842649;77;21154;-75
2023/04/21 09:06:06;;;;;;;39.58;34.48;;;37.60;48.40;;;;;;1842100;76;21095;-77
2023/04/21 09:08:40;;;;;;;39.30;35.33;;;37.50;48.50;;;;;;1845880;76;21152;-76
2023/04/21 09:11:13;;;;;;;39.00;35.13;;;37.50;48.80;;;;;;1847850;77;21657;-76
2023/04/21 09:13:45;;;;;;;39.40;35.48;;;37.40;49.00;;;;;;1810809;79;21487;-78
2023/04/21 09:16:21;;;;;;;39.20;34.98;;;37.40;49.00;;;;;;1809886;79;21484;-77
2023/04/21 09:18:52;;;;;;;40.83;36.33;;;37.30;49.10;;;;;;1813853;79;21570;-77
2023/04/21 09:21:26;;;;;;;46.58;36.08;;;37.40;49.20;;;;;;1848684;76;21206;-75
2023/04/21 09:24:00;;;;;;;38.85;34.98;;;37.40;49.00;;;;;;1857928;75;21092;-74
2023/04/21 09:26:31;;;;;;;38.67;34.45;;;37.30;48.80;;;;;;1854752;76;21575;-74
2023/04/21 09:29:06;;;;;;;39.50;35.25;;;37.30;48.90;;;;;;1827155;78;21512;-73
2023/04/21 09:31:37;;;;;;;41.00;36.23;;;37.30;49.20;;;;;;1827840;77;21193;-74
2023/04/21 09:34:28;;;;;;;42.38;37.05;;;37.20;49.40;;;;;;1892310;76;22331;-76
2023/04/21 09:37:04;;;;;;;40.38;36.05;;;37.20;49.50;;;;;;1826989;78;21236;-74
2023/04/21 09:39:39;;;;;;;44.40;38.85;;;37.20;49.60;;;;;;1811109;79;22486;-74
2023/04/21 09:42:15;;;;;;;42.25;37.85;;;37.20;49.60;;;;;;1813151;79;21673;-74
2023/04/21 09:44:46;;;;;;;49.90;36.80;;;37.10;49.50;;;;;;1824301;78;21196;-73
2023/04/21 09:47:19;;;;;;;42.85;36.25;;;37.20;49.70;;;;;;1826541;78;21175;-74
2023/04/21 09:49:53;;;;;;;41.15;37.08;;;37.10;49.60;;;;;;1832138;77;21156;-74
2023/04/21 09:52:26;;;;;;;41.90;35.78;;;37.10;49.70;;;;;;1823761;78;21238;-72
2023/04/21 09:55:04;;;;;;;43.78;39.13;;;37.10;49.60;;;;;;1814905;77;21245;-73
2023/04/21 09:57:37;;;;;;;44.65;36.33;;;37.10;49.80;;;;;;1885986;75;21185;-74
2023/04/21 10:00:13;;;;;;;41.73;36.83;;;37.00;49.60;;;;;;1822582;78;21178;-76
2023/04/21 10:02:46;;;;;;;50.92;39.15;;;37.10;49.90;;;;;;1825715;78;21490;-74
2023/04/21 10:05:17;;;;;;;51.60;41.68;;;37.00;50.10;;;;;;1820452;78;21788;-75
2023/04/21 10:07:49;;;;;;;48.42;39.73;;;37.10;50.20;;;;;;1826168;78;21160;-72
2023/04/21 10:10:30;;;;;;;57.85;39.20;;;37.00;50.40;;;;;;1827599;77;21150;-73
2023/04/21 10:13:01;;;;;;;45.98;38.48;;;37.00;50.60;;;;;;1822498;77;21258;-72
2023/04/21 10:15:34;;;;;;;42.73;37.67;;;37.00;50.60;;;;;;1864831;76;21170;-74
2023/04/21 10:18:27;;;;;;;50.23;37.80;;;37.00;50.40;;;;;;1858580;76;21119;-71
2023/04/21 10:21:03;;;;;;;47.45;37.85;;;37.00;50.30;;;;;;1860044;76;21197;-72
2023/04/21 10:23:45;;;;;;;42.40;37.93;;;37.00;50.40;;;;;;1815568;78;21112;-73
2023/04/21 10:26:21;;;;;;;43.87;39.23;;;37.00;50.50;;;;;;1854453;77;21164;-74
2023/04/21 10:29:00;;;;;;;43.42;38.05;;;37.00;50.50;;;;;;1857208;76;21131;-74
2023/04/21 10:31:37;;;;;;;45.98;38.73;;;37.00;50.70;;;;;;1869716;76;21163;-71
2023/04/21 10:34:11;;;;;;;47.03;37.13;;;37.00;50.70;;;;;;1858867;77;21673;-73
2023/04/21 10:36:50;;;;;;;45.00;40.05;;;36.90;50.50;;;;;;1855828;76;21124;-75
2023/04/21 10:39:35;;;;;;;51.18;41.25;;;36.90;50.60;;;;;;1860967;76;21114;-74
2023/04/21 10:42:23;;;;;;;52.35;40.75;;;36.90;50.80;;;;;;1857436;76;21161;-75
2023/04/21 10:45:01;;;;;;;47.80;41.85;;;36.90;51.00;;;;;;1822158;77;21141;-73
2023/04/21 10:47:52;;;;;;;55.20;45.20;;;36.90;51.10;;;;;;1853572;77;21130;-73
2023/04/21 10:50:26;;;;;;;55.15;47.33;;;36.90;51.20;;;;;;1865761;75;21549;-73
2023/04/21 10:52:58;;;;;;;59.67;48.10;;;36.80;51.40;;;;;;1869585;75;21244;-72
2023/04/21 10:55:30;;;;;;;55.08;45.95;;;36.80;51.50;;;;;;1865718;75;21559;-72
2023/04/21 10:58:03;;;;;;;55.85;44.98;;;36.80;51.50;;;;;;1837336;77;21600;-72
2023/04/21 11:00:36;;;;;;;53.87;44.13;;;36.80;51.60;;;;;;1795247;78;21756;-74
2023/04/21 11:03:09;;;;;;;56.25;42.65;;;36.80;51.70;;;;;;1794956;79;21551;-74
2023/04/21 11:05:41;;;;;;;48.87;38.60;;;36.80;51.30;;;;;;1867067;75;21233;-74
2023/04/21 11:08:14;;;;;;;40.92;36.63;;;36.70;51.20;;;;;;1864235;76;21231;-73
2023/04/21 11:10:47;;;;;;;41.73;37.28;;;36.70;50.70;;;;;;1866877;75;21150;-73
2023/04/21 11:13:26;;;;;;;42.25;36.30;;;36.70;50.80;;;;;;1889443;75;21216;-74
2023/04/21 11:16:09;;;;;;;44.30;36.05;;;36.60;50.60;;;;;;1883270;75;21567;-74
2023/04/21 11:18:42;;;;;;;41.30;35.00;;;36.60;50.40;;;;;;1863003;76;21090;-75
2023/04/21 11:21:20;;;;;;;44.67;34.80;;;36.60;50.50;;;;;;1864510;76;21072;-76
2023/04/21 11:23:59;;;;;;;54.33;39.42;;;36.50;50.80;;;;;;1867371;75;21805;-74
2023/04/21 11:26:37;;;;;;;62.23;38.15;;;36.50;51.80;;;;;;1863855;75;21140;-75
2023/04/21 11:29:09;;;;;;;48.45;39.85;;;36.50;51.90;;;;;;1875576;75;21130;-75
2023/04/21 11:31:41;;;;;;;52.95;38.35;;;36.50;51.60;;;;;;1876306;75;21134;-76
2023/04/21 11:34:15;;;;;;;49.42;38.92;;;36.40;51.00;;;;;;1893214;75;21497;-75
2023/04/21 11:36:47;;;;;;;47.75;37.63;;;36.30;50.70;;;;;;1877006;75;21260;-76
2023/04/21 11:39:18;;;;;;;55.65;38.28;;;36.30;51.20;;;;;;1886967;75;21079;-75
2023/04/21 11:41:52;;;;;;;49.30;37.75;;;36.20;50.70;;;;;;1863493;75;21155;-75
2023/04/21 11:44:43;;;;;;;55.60;38.50;;;36.20;50.50;;;;;;1864926;77;21222;-75
2023/04/21 11:47:19;;;;;;;49.50;39.73;;;36.10;50.80;;;;;;1865867;75;21122;-75
2023/04/21 11:49:58;;;;;;;48.58;42.58;;;36.10;51.60;;;;;;1852566;76;21715;-75
2023/04/21 11:52:37;;;;;;;47.25;41.95;;;36.00;52.70;;;;;;1856967;76;21084;-74
2023/04/21 11:55:16;;;;;;;47.40;41.65;;;35.90;52.30;;;;;;1859428;76;21082;-74
2023/04/21 11:57:47;;;;;;;51.98;42.53;;;35.80;52.70;;;;;;1854417;76;21091;-73
2023/04/21 12:00:20;;;;;;;49.45;40.73;;;35.70;52.90;;;;;;1863740;76;21142;-75
2023/04/21 12:02:58;;;;;;;49.25;42.45;;;35.70;53.30;;;;;;1859221;76;21162;-74
2023/04/21 12:05:37;;;;;;;49.42;41.48;;;35.60;53.40;;;;;;1857121;76;21567;-76
2023/04/21 12:08:28;;;;;;;54.90;42.00;;;35.50;53.50;;;;;;1850542;76;21080;-75
2023/04/21 12:11:10;;;;;;;47.33;42.30;;;35.50;53.60;;;;;;1839113;77;21132;-74
2023/04/21 12:13:42;;;;;;;46.30;41.28;;;35.40;53.70;;;;;;1888772;75;21581;-75
2023/04/21 12:16:18;;;;;;;49.88;41.25;;;35.30;54.00;;;;;;1843894;77;21227;-75
2023/04/21 12:19:01;;;;;;;45.70;40.38;;;35.30;53.60;;;;;;1790827;80;21263;-84
2023/04/21 12:21:33;;;;;;;45.95;40.35;;;35.30;53.80;;;;;;1842963;77;21142;-84
2023/04/21 12:24:06;;;;;;;46.95;40.43;;;35.20;53.80;;;;;;1857291;77;21124;-83
2023/04/21 12:26:37;;;;;;;46.18;39.38;;;35.10;54.10;;;;;;1848423;77;21164;-85
2023/04/21 12:29:08;;;;;;;44.83;40.05;;;35.00;54.20;;;;;;1834252;77;21194;-83
2023/04/21 12:31:39;;;;;;;43.85;39.15;;;35.00;54.30;;;;;;1844608;77;21557;-84
2023/04/21 12:34:11;;;;;;;46.80;39.40;;;34.90;54.20;;;;;;1835457;77;21099;-85
2023/04/21 12:36:42;;;;;;;48.65;40.58;;;34.90;54.20;;;;;;1853504;77;21135;-84
2023/04/21 12:39:13;;;;;;;43.85;39.00;;;34.90;54.30;;;;;;1829681;77;21620;-84
2023/04/21 12:41:44;;;;;;;47.30;40.92;;;34.80;54.40;;;;;;1816424;78;21153;-85
2023/04/21 12:44:15;;;;;;;43.35;38.95;;;34.80;54.40;;;;;;1820640;78;21199;-85
2023/04/21 12:46:47;;;;;;;46.18;39.60;;;34.90;54.40;;;;;;1856530;77;21146;-85
2023/04/21 12:49:19;;;;;;;43.38;38.67;;;34.80;54.30;;;;;;1829224;77;21134;-84
2023/04/21 12:51:50;;;;;;;43.38;38.80;;;34.80;54.30;;;;;;1839215;77;21158;-84
2023/04/21 12:54:21;;;;;;;43.20;37.15;;;34.80;54.00;;;;;;1797748;78;21099;-84
2023/04/21 12:56:52;;;;;;;42.83;38.25;;;34.80;52.90;;;;;;1839292;77;21121;-85